createdAt,value
2022-10-23T00:01:35.916Z,100430.38
2022-10-23T00:04:11.409Z,100413.28
2022-10-23T00:06:38.589Z,100432.13
2022-10-23T00:09:08.015Z,100440.75
2022-10-23T00:11:35.929Z,100442.47
2022-10-23T00:14:06.244Z,100440.75
2022-10-23T00:16:34.134Z,100437.31
2022-10-23T00:19:01.441Z,100446.81
2022-10-23T00:21:29.055Z,100447.66
2022-10-23T00:23:56.458Z,100440.88
2022-10-23T00:26:23.756Z,100451.13
2022-10-23T00:28:53.775Z,100419.38
2022-10-23T00:31:22.876Z,100445.94
2022-10-23T00:33:50.943Z,100418.50
2022-10-23T00:36:20.415Z,100432.28
2022-10-23T00:38:48.380Z,100451.13
2022-10-23T00:41:22.819Z,100375.69
2022-10-23T00:44:07.595Z,100447.69
2022-10-23T00:46:36.381Z,100433.13
2022-10-23T00:49:04.873Z,100447.75
2022-10-23T00:51:51.556Z,100444.34
2022-10-23T00:54:24.805Z,100385.16
2022-10-23T00:56:56.874Z,100412.72
2022-10-23T00:59:24.376Z,100417.72
2022-10-23T01:01:52.242Z,100439.13
2022-10-23T01:04:20.088Z,100437.38
2022-10-23T01:07:02.983Z,100435.63
2022-10-23T01:09:40.815Z,100437.38
2022-10-23T01:12:29.207Z,100431.28
2022-10-23T01:15:24.375Z,100380.75
2022-10-23T01:18:23.304Z,100413.22
2022-10-23T01:21:07.861Z,100430.44
2022-10-23T01:23:50.109Z,100421.75
2022-10-23T01:27:11.497Z,100420.06
2022-10-23T01:29:44.317Z,100426.94
2022-10-23T01:32:22.133Z,100428.66
2022-10-23T01:35:14.815Z,100416.66
2022-10-23T01:37:51.645Z,100387.44
2022-10-23T01:40:49.115Z,100423.44
2022-10-23T01:43:24.786Z,100423.44
2022-10-23T01:46:02.133Z,100420.06
2022-10-23T01:48:32.503Z,100377.22
2022-10-23T01:51:04.074Z,100380.56
2022-10-23T01:53:38.949Z,100418.31
2022-10-23T01:56:12.573Z,100412.28
2022-10-23T01:58:44.936Z,100411.41
2022-10-23T02:01:14.850Z,100399.31
2022-10-23T02:03:50.475Z,100414.88
2022-10-23T02:06:18.254Z,100400.31
2022-10-23T02:08:45.723Z,100415.78
2022-10-23T02:11:21.534Z,100423.59
2022-10-23T02:14:12.489Z,100427.09
2022-10-23T02:16:43.015Z,100430.59
2022-10-23T02:19:28.256Z,100428.84
2022-10-23T02:22:24.344Z,100425.44
2022-10-23T02:25:05.090Z,100439.31
2022-10-23T02:28:04.323Z,100405.00
2022-10-23T02:30:43.251Z,100430.69
2022-10-23T02:33:13.715Z,100439.31
2022-10-23T02:35:41.895Z,100427.34
2022-10-23T02:38:34.306Z,100434.13
2022-10-23T02:41:20.004Z,100437.56
2022-10-23T02:44:24.938Z,100447.94
2022-10-23T02:46:58.105Z,100451.44
2022-10-23T02:49:39.144Z,100420.47
2022-10-23T02:52:11.497Z,100446.19
2022-10-23T02:54:57.263Z,100451.34
2022-10-23T02:57:35.494Z,100453.94
2022-10-23T03:00:16.517Z,100449.63
2022-10-23T03:03:15.164Z,100452.22
2022-10-23T03:05:45.257Z,100422.31
2022-10-23T03:08:15.567Z,100459.13
2022-10-23T03:10:43.483Z,100458.22
2022-10-23T03:13:11.453Z,100463.41
2022-10-23T03:15:44.105Z,100424.00
2022-10-23T03:18:15.467Z,100429.13
2022-10-23T03:20:47.540Z,100453.09
2022-10-23T03:23:15.377Z,100423.06
2022-10-23T03:25:43.057Z,100459.97
2022-10-23T03:28:20.867Z,100460.81
2022-10-23T03:30:48.520Z,100424.75
2022-10-23T03:33:16.154Z,100464.22
2022-10-23T03:35:43.394Z,100424.75
2022-10-23T03:38:15.646Z,100461.56
2022-10-23T03:40:43.658Z,100458.22
2022-10-23T03:43:12.851Z,100464.16
2022-10-23T03:45:40.175Z,100468.56
2022-10-23T03:48:08.106Z,100468.50
2022-10-23T03:50:37.110Z,100465.03
2022-10-23T03:53:05.623Z,100432.38
2022-10-23T03:55:34.825Z,100365.53
2022-10-23T03:58:02.215Z,100470.22
2022-10-23T04:00:29.399Z,100402.53
2022-10-23T04:02:56.764Z,100472.75
2022-10-23T04:05:23.974Z,100460.63
2022-10-23T04:07:55.292Z,100464.09
2022-10-23T04:10:22.783Z,100434.13
2022-10-23T04:12:51.164Z,100462.38
2022-10-23T04:15:18.573Z,100437.41
2022-10-23T04:17:46.785Z,100451.13
2022-10-23T04:20:14.243Z,100420.31
2022-10-23T04:22:41.718Z,100458.81
2022-10-23T04:25:10.279Z,100455.38
2022-10-23T04:27:37.817Z,100459.72
2022-10-23T04:30:05.496Z,100463.13
2022-10-23T04:32:32.852Z,100454.53
2022-10-23T04:35:00.070Z,100457.94
2022-10-23T04:37:28.381Z,100445.91
2022-10-23T04:39:55.743Z,100425.31
2022-10-23T04:42:23.058Z,100412.41
2022-10-23T04:44:50.212Z,100456.13
2022-10-23T04:47:17.757Z,100453.56
2022-10-23T04:49:59.054Z,100397.81
2022-10-23T04:52:46.585Z,100461.28
2022-10-23T04:55:36.574Z,100451.84
2022-10-23T04:58:13.243Z,100460.47
2022-10-23T05:00:41.622Z,100456.06
2022-10-23T05:03:09.734Z,100445.75
2022-10-23T05:05:42.752Z,100453.53
2022-10-23T05:08:28.834Z,100463.84
2022-10-23T05:11:34.816Z,100428.69
2022-10-23T05:14:06.784Z,100468.25
2022-10-23T05:16:43.363Z,100479.38
2022-10-23T05:19:21.931Z,100476.84
2022-10-23T05:21:56.158Z,100451.13
2022-10-23T05:24:31.767Z,100473.44
2022-10-23T05:27:01.942Z,100478.63
2022-10-23T05:29:31.296Z,100487.22
2022-10-23T05:32:03.074Z,100458.97
2022-10-23T05:34:33.495Z,100388.63
2022-10-23T05:37:02.779Z,100490.69
2022-10-23T05:39:34.296Z,100480.31
2022-10-23T05:42:02.619Z,100485.47
2022-10-23T05:44:29.724Z,100482.03
2022-10-23T05:47:15.296Z,100483.78
2022-10-23T05:50:11.937Z,100487.22
2022-10-23T05:52:57.537Z,100488.09
2022-10-23T05:55:48.369Z,100487.28
2022-10-23T05:58:34.651Z,100486.38
2022-10-23T06:01:28.147Z,100486.38
2022-10-23T06:04:05.977Z,100482.94
2022-10-23T06:06:59.479Z,100463.22
2022-10-23T06:09:26.688Z,100478.63
2022-10-23T06:11:57.583Z,100427.28
2022-10-23T06:14:24.696Z,100495.84
2022-10-23T06:16:52.615Z,100468.44
2022-10-23T06:19:20.659Z,100502.78
2022-10-23T06:21:51.863Z,100477.09
2022-10-23T06:24:19.345Z,100450.50
2022-10-23T06:26:54.334Z,100485.78
2022-10-23T06:29:41.980Z,100518.41
2022-10-23T06:32:09.134Z,100425.78
2022-10-23T06:34:37.326Z,100458.31
2022-10-23T06:37:05.133Z,100502.88
2022-10-23T06:39:55.185Z,100509.84
2022-10-23T06:42:38.546Z,100517.56
2022-10-23T06:45:41.235Z,100521.06
2022-10-23T06:48:14.823Z,100514.97
2022-10-23T06:51:09.137Z,100521.06
2022-10-23T06:53:42.241Z,100520.25
2022-10-23T06:56:32.345Z,100501.44
2022-10-23T06:59:00.814Z,100538.38
2022-10-23T07:01:29.416Z,100516.88
2022-10-23T07:03:56.938Z,100534.03
2022-10-23T07:06:26.615Z,100509.94
2022-10-23T07:08:54.225Z,100477.38
2022-10-23T07:11:50.775Z,100530.53
2022-10-23T07:14:24.743Z,100528.84
2022-10-23T07:16:54.929Z,100539.19
2022-10-23T07:19:22.507Z,100540.94
2022-10-23T07:22:03.982Z,100542.63
2022-10-23T07:24:41.106Z,100505.72
2022-10-23T07:27:28.506Z,100523.75
2022-10-23T07:29:57.953Z,100532.28
2022-10-23T07:32:29.184Z,100542.63
2022-10-23T07:35:15.937Z,100496.19
2022-10-23T07:37:53.400Z,100515.09
2022-10-23T07:40:22.267Z,100539.06
2022-10-23T07:42:52.038Z,100468.59
2022-10-23T07:45:19.472Z,100526.75
2022-10-23T07:47:52.515Z,100521.50
2022-10-23T07:50:22.936Z,100530.09
2022-10-23T07:52:50.290Z,100526.53
2022-10-23T07:55:18.745Z,100526.47
2022-10-23T07:57:53.568Z,100495.44
2022-10-23T08:00:41.483Z,100506.38
2022-10-23T08:03:20.848Z,100530.28
2022-10-23T08:05:48.515Z,100527.66
2022-10-23T08:08:15.758Z,100514.88
2022-10-23T08:10:48.436Z,100534.56
2022-10-23T08:13:22.520Z,100532.94
2022-10-23T08:15:59.821Z,100538.16
2022-10-23T08:19:03.213Z,100530.44
2022-10-23T08:21:30.834Z,100541.75
2022-10-23T08:23:59.486Z,100547.81
2022-10-23T08:26:31.345Z,100534.81
2022-10-23T08:29:00.280Z,100545.22
2022-10-23T08:31:28.767Z,100554.75
2022-10-23T08:34:22.827Z,100509.19
2022-10-23T08:36:52.215Z,100548.66
2022-10-23T08:39:19.716Z,100547.81
2022-10-23T08:42:05.443Z,100553.88
2022-10-23T08:44:58.647Z,100555.59
2022-10-23T08:47:51.174Z,100560.78
2022-10-23T08:50:56.475Z,100553.88
2022-10-23T08:53:49.697Z,100543.59
2022-10-23T08:56:32.776Z,100553.13
2022-10-23T08:59:15.393Z,100567.72
2022-10-23T09:01:46.383Z,100571.22
2022-10-23T09:04:15.856Z,100573.81
2022-10-23T09:07:12.265Z,100538.63
2022-10-23T09:09:39.795Z,100583.31
2022-10-23T09:12:14.214Z,100580.72
2022-10-23T09:14:48.655Z,100573.78
2022-10-23T09:18:04.985Z,100574.63
2022-10-23T09:20:34.794Z,100580.63
2022-10-23T09:23:14.744Z,100571.09
2022-10-23T09:25:42.964Z,100504.97
2022-10-23T09:28:21.335Z,100577.84
2022-10-23T09:30:49.650Z,100582.16
2022-10-23T09:33:26.104Z,100584.78
2022-10-23T09:35:58.592Z,100581.25
2022-10-23T09:38:30.854Z,100575.91
2022-10-23T09:41:06.625Z,100578.47
2022-10-23T09:43:34.340Z,100582.69
2022-10-23T09:46:07.058Z,100588.63
2022-10-23T09:48:36.257Z,100580.88
2022-10-23T09:51:15.733Z,100554.28
2022-10-23T09:53:48.946Z,100584.31
2022-10-23T09:56:40.314Z,100541.41
2022-10-23T09:59:13.940Z,100581.00
2022-10-23T10:01:58.681Z,100584.47
2022-10-23T10:04:49.283Z,100577.63
2022-10-23T10:07:25.696Z,100579.31
2022-10-23T10:09:55.007Z,100581.06
2022-10-23T10:12:55.884Z,100581.06
2022-10-23T10:15:38.141Z,100519.31
2022-10-23T10:18:21.645Z,100563.78
2022-10-23T10:21:07.448Z,100579.19
2022-10-23T10:23:53.836Z,100579.97
2022-10-23T10:26:42.697Z,100586.91
2022-10-23T10:29:30.315Z,100587.78
2022-10-23T10:32:06.417Z,100592.97
2022-10-23T10:34:52.134Z,100568.91
2022-10-23T10:37:25.423Z,100594.66
2022-10-23T10:40:18.432Z,100586.91
2022-10-23T10:43:08.771Z,100586.09
2022-10-23T10:45:44.977Z,100605.00
2022-10-23T10:48:27.254Z,100597.19
2022-10-23T10:51:46.614Z,100592.06
2022-10-23T10:54:22.599Z,100589.41
2022-10-23T10:56:49.938Z,100587.66
2022-10-23T10:59:38.213Z,100584.19
2022-10-23T11:02:45.627Z,100570.47
2022-10-23T11:05:28.705Z,100554.28
2022-10-23T11:08:07.896Z,100582.56
2022-10-23T11:10:38.737Z,100573.97
2022-10-23T11:13:06.013Z,100560.25
2022-10-23T11:15:41.565Z,100577.34
2022-10-23T11:18:26.253Z,100577.25
2022-10-23T11:21:20.214Z,100573.69
2022-10-23T11:24:40.759Z,100556.44
2022-10-23T11:27:26.115Z,100526.47
2022-10-23T11:30:10.696Z,100563.19
2022-10-23T11:32:55.947Z,100562.25
2022-10-23T11:35:32.145Z,100556.97
2022-10-23T11:38:28.616Z,100559.44
2022-10-23T11:41:26.734Z,100549.88
2022-10-23T11:44:04.823Z,100547.13
2022-10-23T11:46:35.940Z,100552.19
2022-10-23T11:49:06.593Z,100558.16
2022-10-23T11:51:39.578Z,100551.94
2022-10-23T11:54:13.543Z,100549.22
2022-10-23T11:57:02.635Z,100550.78
2022-10-23T11:59:32.597Z,100541.22
2022-10-23T12:02:03.040Z,100546.34
2022-10-23T12:04:47.094Z,100542.00
2022-10-23T12:07:27.153Z,100544.63
2022-10-23T12:09:59.491Z,100536.72
2022-10-23T12:12:34.207Z,100529.84
2022-10-23T12:15:20.747Z,100526.56
2022-10-23T12:17:50.317Z,100536.78
2022-10-23T12:20:39.457Z,100545.56
2022-10-23T12:23:15.612Z,100548.19
2022-10-23T12:26:10.699Z,100547.41
2022-10-23T12:28:59.746Z,100509.59
2022-10-23T12:31:47.876Z,100548.31
2022-10-23T12:34:50.705Z,100544.97
2022-10-23T12:37:40.533Z,100545.03
2022-10-23T12:40:10.047Z,100548.59
2022-10-23T12:42:38.466Z,100536.53
2022-10-23T12:45:30.387Z,100510.03
2022-10-23T12:47:57.997Z,100541.78
2022-10-23T12:50:28.311Z,100540.09
2022-10-23T12:52:56.735Z,100536.72
2022-10-23T12:55:26.225Z,100470.66
2022-10-23T12:57:54.004Z,100533.22
2022-10-23T13:00:24.745Z,100529.72
2022-10-23T13:03:00.134Z,100514.25
2022-10-23T13:05:28.107Z,100525.31
2022-10-23T13:07:55.720Z,100524.41
2022-10-23T13:10:34.136Z,100522.63
2022-10-23T13:13:07.526Z,100488.22
2022-10-23T13:15:43.224Z,100481.31
2022-10-23T13:18:14.497Z,100515.56
2022-10-23T13:20:52.285Z,100524.22
2022-10-23T13:23:28.799Z,100519.06
2022-10-23T13:25:58.685Z,100522.56
2022-10-23T13:28:42.788Z,100509.78
2022-10-23T13:31:13.119Z,100520.91
2022-10-23T13:33:47.306Z,100516.63
2022-10-23T13:36:17.778Z,100514.06
2022-10-23T13:38:46.651Z,100514.09
2022-10-23T13:41:23.065Z,100517.59
2022-10-23T13:43:50.288Z,100512.47
2022-10-23T13:46:19.610Z,100522.94
2022-10-23T13:48:47.745Z,100522.94
2022-10-23T13:51:20.304Z,100523.81
2022-10-23T13:53:48.197Z,100515.19
2022-10-23T13:56:17.730Z,100509.22
2022-10-23T13:58:44.950Z,100481.81
2022-10-23T14:01:24.173Z,100511.84
2022-10-23T14:03:52.686Z,100512.69
2022-10-23T14:06:20.368Z,100511.94
2022-10-23T14:08:48.094Z,100441.69
2022-10-23T14:11:17.043Z,100516.25
2022-10-23T14:13:45.016Z,100514.59
2022-10-23T14:16:13.627Z,100520.63
2022-10-23T14:18:41.207Z,100494.91
2022-10-23T14:21:11.134Z,100518.94
2022-10-23T14:23:38.488Z,100523.28
2022-10-23T14:26:12.135Z,100519.84
2022-10-23T14:28:39.597Z,100512.94
2022-10-23T14:31:10.060Z,100518.16
2022-10-23T14:33:37.365Z,100513.06
2022-10-23T14:36:05.773Z,100514.00
2022-10-23T14:38:33.545Z,100507.97
2022-10-23T14:41:01.096Z,100511.34
2022-10-23T14:43:28.436Z,100498.44
2022-10-23T14:45:55.656Z,100446.09
2022-10-23T14:48:22.899Z,100482.94
2022-10-23T14:50:50.427Z,100471.81
2022-10-23T14:53:17.742Z,100488.91
2022-10-23T14:55:44.903Z,100487.16
2022-10-23T14:58:12.135Z,100490.53
2022-10-23T15:00:39.903Z,100487.09
2022-10-23T15:03:07.087Z,100487.16
2022-10-23T15:05:34.286Z,100488.91
2022-10-23T15:08:02.065Z,100478.56
2022-10-23T15:10:29.341Z,100476.03
2022-10-23T15:12:56.700Z,100437.59
2022-10-23T15:15:24.098Z,100480.53
2022-10-23T15:17:51.394Z,100458.31
2022-10-23T15:20:18.704Z,100480.72
2022-10-23T15:22:46.296Z,100494.63
2022-10-23T15:25:17.751Z,100486.06
2022-10-23T15:27:45.723Z,100477.56
2022-10-23T15:30:13.465Z,100489.56
2022-10-23T15:32:41.525Z,100490.47
2022-10-23T15:35:09.129Z,100487.94
2022-10-23T15:37:36.883Z,100472.47
2022-10-23T15:40:04.512Z,100427.06
2022-10-23T15:42:31.929Z,100485.47
2022-10-23T15:44:59.426Z,100444.41
2022-10-23T15:47:26.735Z,100480.41
2022-10-23T15:49:54.053Z,100481.38
2022-10-23T15:52:21.341Z,100482.25
2022-10-23T15:54:48.915Z,100452.28
2022-10-23T15:57:16.258Z,100457.38
2022-10-23T15:59:43.538Z,100477.19
2022-10-23T16:02:12.600Z,100472.91
2022-10-23T16:04:39.852Z,100421.47
2022-10-23T16:07:07.687Z,100466.19
2022-10-23T16:09:35.044Z,100463.69
2022-10-23T16:12:02.506Z,100456.03
2022-10-23T16:14:29.784Z,100372.19
2022-10-23T16:16:57.184Z,100422.69
2022-10-23T16:19:24.666Z,100456.22
2022-10-23T16:21:52.056Z,100465.75
2022-10-23T16:24:19.353Z,100458.91
2022-10-23T16:26:50.703Z,100429.84
2022-10-23T16:29:18.181Z,100456.38
2022-10-23T16:31:45.745Z,100435.06
2022-10-23T16:34:13.224Z,100463.41
2022-10-23T16:36:40.654Z,100463.41
2022-10-23T16:39:37.396Z,100460.91
2022-10-23T16:42:28.828Z,100454.88
2022-10-23T16:45:25.428Z,100445.59
2022-10-23T16:47:52.753Z,100447.44
2022-10-23T16:50:20.069Z,100465.47
2022-10-23T16:52:49.085Z,100472.41
2022-10-23T16:55:18.386Z,100480.19
2022-10-23T16:57:45.735Z,100484.53
2022-10-23T17:00:13.336Z,100491.47
2022-10-23T17:02:40.641Z,100488.91
2022-10-23T17:05:08.545Z,100448.53
2022-10-23T17:07:37.421Z,100491.50
2022-10-23T17:10:05.808Z,100487.19
2022-10-23T17:12:33.226Z,100488.06
2022-10-23T17:15:00.463Z,100479.47
2022-10-23T17:17:27.785Z,100475.94
2022-10-23T17:19:55.175Z,100476.84
2022-10-23T17:22:22.695Z,100448.53
2022-10-23T17:24:53.014Z,100412.47
2022-10-23T17:27:21.318Z,100477.84
2022-10-23T17:29:48.502Z,100441.69
2022-10-23T17:32:15.973Z,100479.50
2022-10-23T17:34:43.261Z,100444.28
2022-10-23T17:37:13.547Z,100459.75
2022-10-23T17:39:41.593Z,100452.88
2022-10-23T17:42:08.928Z,100429.72
2022-10-23T17:44:36.578Z,100458.81
2022-10-23T17:47:03.909Z,100468.28
2022-10-23T17:49:31.125Z,100467.41
2022-10-23T17:51:58.497Z,100440.72
2022-10-23T17:54:27.670Z,100464.84
2022-10-23T17:56:55.339Z,100468.31
2022-10-23T17:59:22.863Z,100469.19
2022-10-23T18:01:50.440Z,100467.44
2022-10-23T18:04:20.767Z,100470.03
2022-10-23T18:06:51.114Z,100460.56
2022-10-23T18:09:18.854Z,100465.75
2022-10-23T18:11:48.364Z,100453.75
2022-10-23T18:14:20.013Z,100459.72
2022-10-23T18:16:47.624Z,100460.56
2022-10-23T18:19:18.484Z,100434.69
2022-10-23T18:21:46.660Z,100458.81
2022-10-23T18:24:14.493Z,100443.25
2022-10-23T18:26:42.836Z,100447.56
2022-10-23T18:29:12.494Z,100453.53
2022-10-23T18:31:40.534Z,100441.44
2022-10-23T18:34:22.299Z,100431.06
2022-10-23T18:36:50.753Z,100432.81
2022-10-23T18:39:22.694Z,100422.47
2022-10-23T18:41:56.395Z,100424.13
2022-10-23T18:44:24.945Z,100400.16
2022-10-23T18:46:52.523Z,100431.06
2022-10-23T18:49:19.908Z,100420.69
2022-10-23T18:51:47.655Z,100413.81
2022-10-23T18:54:17.385Z,100415.50
2022-10-23T18:56:44.863Z,100412.06
2022-10-23T18:59:15.253Z,100405.16
2022-10-23T19:01:42.748Z,100401.75
2022-10-23T19:04:13.038Z,100404.34
2022-10-23T19:06:40.290Z,100369.94
2022-10-23T19:09:09.018Z,100396.59
2022-10-23T19:11:37.544Z,100403.47
2022-10-23T19:14:06.077Z,100363.00
2022-10-23T19:16:42.417Z,100377.56
2022-10-23T19:19:20.333Z,100379.31
2022-10-23T19:21:49.031Z,100342.38
2022-10-23T19:24:47.283Z,100375.88
2022-10-23T19:27:14.817Z,100334.69
2022-10-23T19:29:45.665Z,100367.25
2022-10-23T19:32:13.383Z,100326.88
2022-10-23T19:34:40.934Z,100359.47
2022-10-23T19:37:08.354Z,100352.59
2022-10-23T19:39:35.542Z,100332.06
2022-10-23T19:42:02.785Z,100349.09
2022-10-23T19:44:29.974Z,100331.97
2022-10-23T19:46:57.130Z,100350.00
2022-10-23T19:49:24.333Z,100350.91
2022-10-23T19:51:51.858Z,100340.63
2022-10-23T19:54:20.748Z,100322.50
2022-10-23T19:56:48.655Z,100330.28
2022-10-23T19:59:16.024Z,100335.41
2022-10-23T20:01:46.362Z,100339.72
2022-10-23T20:04:17.777Z,100337.09
2022-10-23T20:06:45.027Z,100335.34
2022-10-23T20:09:12.415Z,100312.25
2022-10-23T20:11:40.264Z,100332.81
2022-10-23T20:14:07.932Z,100342.31
2022-10-23T20:16:37.544Z,100343.28
2022-10-23T20:19:08.457Z,100287.69
2022-10-23T20:21:36.885Z,100367.41
2022-10-23T20:24:04.351Z,100362.25
2022-10-23T20:26:31.694Z,100350.16
2022-10-23T20:28:58.974Z,100338.09
2022-10-23T20:31:27.525Z,100349.31
2022-10-23T20:33:56.298Z,100326.16
2022-10-23T20:36:29.756Z,100348.44
2022-10-23T20:38:59.097Z,100348.44
2022-10-23T20:41:28.785Z,100336.38
2022-10-23T20:43:56.521Z,100255.88
2022-10-23T20:46:24.304Z,100333.81
2022-10-23T20:48:51.790Z,100331.25
2022-10-23T20:51:21.744Z,100331.25
2022-10-23T20:53:49.385Z,100320.88
2022-10-23T20:56:20.194Z,100296.91
2022-10-23T20:58:47.688Z,100323.53
2022-10-23T21:01:17.454Z,100334.69
2022-10-23T21:03:49.066Z,100336.47
2022-10-23T21:06:17.094Z,100287.56
2022-10-23T21:08:44.875Z,100334.69
2022-10-23T21:11:14.824Z,100329.50
2022-10-23T21:13:44.250Z,100330.41
2022-10-23T21:16:13.299Z,100315.72
2022-10-23T21:18:45.875Z,100327.72
2022-10-23T21:21:17.453Z,100317.44
2022-10-23T21:23:45.137Z,100325.13
2022-10-23T21:26:12.506Z,100310.50
2022-10-23T21:28:41.739Z,100312.25
2022-10-23T21:31:18.902Z,100306.19
2022-10-23T21:33:48.851Z,100216.19
2022-10-23T21:36:20.064Z,100272.69
2022-10-23T21:38:53.205Z,100254.63
2022-10-23T21:41:24.825Z,100294.06
2022-10-23T21:44:03.306Z,100294.94
2022-10-23T21:46:32.449Z,100289.75
2022-10-23T21:49:00.696Z,100269.16
2022-10-23T21:51:37.669Z,100257.16
2022-10-23T21:54:07.503Z,100278.53
2022-10-23T21:56:45.407Z,100269.00
2022-10-23T21:59:15.425Z,100272.50
2022-10-23T22:01:44.862Z,100277.69
2022-10-23T22:04:17.509Z,100263.84
2022-10-23T22:06:46.529Z,100245.03
2022-10-23T22:09:16.351Z,100227.91
2022-10-23T22:11:43.649Z,100263.84
2022-10-23T22:14:10.756Z,100263.97
2022-10-23T22:16:37.858Z,100277.69
2022-10-23T22:19:05.108Z,100258.84
2022-10-23T22:21:32.995Z,100291.44
2022-10-23T22:24:01.380Z,100281.94
2022-10-23T22:26:35.977Z,100266.41
2022-10-23T22:29:08.994Z,100267.31
2022-10-23T22:31:37.132Z,100275.91
2022-10-23T22:34:18.517Z,100282.84
2022-10-23T22:36:54.211Z,100277.63
2022-10-23T22:39:21.386Z,100273.38
2022-10-23T22:41:48.630Z,100263.03
2022-10-23T22:44:16.711Z,100274.25
2022-10-23T22:46:44.235Z,100269.00
2022-10-23T22:49:11.575Z,100206.50
2022-10-23T22:51:40.094Z,100263.88
2022-10-23T22:54:07.377Z,100268.16
2022-10-23T22:56:34.879Z,100269.00
2022-10-23T22:59:03.034Z,100267.31
2022-10-23T23:01:35.883Z,100258.69
2022-10-23T23:04:13.876Z,100256.13
2022-10-23T23:06:50.507Z,100256.13
2022-10-23T23:09:19.014Z,100232.91
2022-10-23T23:11:54.395Z,100244.91
2022-10-23T23:14:24.089Z,100208.88
2022-10-23T23:16:54.965Z,100217.41
2022-10-23T23:19:23.322Z,100236.22
2022-10-23T23:21:50.860Z,100195.28
2022-10-23T23:24:18.058Z,100210.63
2022-10-23T23:26:45.250Z,100256.94
2022-10-23T23:29:12.695Z,100243.19
2022-10-23T23:31:40.025Z,100240.63
2022-10-23T23:34:07.470Z,100238.00
2022-10-23T23:36:35.509Z,100238.00
2022-10-23T23:41:31.824Z,100147.25
2022-10-23T23:43:59.014Z,100231.09
2022-10-23T23:46:26.625Z,100189.16
2022-10-23T23:48:53.887Z,100220.75
2022-10-23T23:51:23.169Z,100221.63
2022-10-23T23:53:51.900Z,100202.75
2022-10-23T23:56:19.955Z,100189.00
2022-10-23T23:58:47.415Z,100207.88
